KBED/BED METAR and TAF weather

Enter ICAO airport designator
Station Type Date Time Source
KBED METAR 2022/06/30 13:51 UTC NOAA

KBED 301351Z 34009KT 10SM CLR 23/12 A3017 RMK AO2 SLP228 T02280117


Station Type Date Time Source
KBED Decoded METAR 2022/06/30 13:51 UTC NOAA

BEDFORD HANSCOM FIELD, MA, United States (KBED) 42-28N 071-18W 50M
Jun 30, 2022 - 09:51 AM EDT / 2022.06.30 1351 UTC
Wind: from the NNW (340 degrees) at 10 MPH (9 KT):0
Visibility: 10 mile(s):0
Sky conditions: clear
Temperature: 73.0 F (22.8 C)
Dew Point: 53.1 F (11.7 C)
Relative Humidity: 49%
Pressure (altimeter): 30.17 in. Hg (1021 hPa)
ob: KBED 301351Z 34009KT 10SM CLR 23/12 A3017 RMK AO2 SLP228 T02280117
cycle: 14

Station Type Date Time Source
KBED TAF 2022/06/30 12:22 UTC NOAA

TAF KBED 301120Z 3012/0112 32005KT P6SM FEW130
FM301400 32007KT P6SM FEW130
FM302100 31005KT P6SM SCT130
FM010000 00000KT P6SM BKN090
FM011000 20003KT P6SM FEW060

Example: see airport list